createdAt,value
2022-08-09T00:00:00.085Z,20.13
2022-08-09T00:02:29.392Z,20.26
2022-08-09T00:05:00.793Z,20.38
2022-08-09T00:07:45.482Z,20.22
2022-08-09T00:10:21.038Z,20.08
2022-08-09T00:12:53.138Z,20.01
2022-08-09T00:15:26.385Z,19.97
2022-08-09T00:18:05.674Z,19.91
2022-08-09T00:20:41.388Z,19.85
2022-08-09T00:23:54.835Z,19.84
2022-08-09T00:26:00.154Z,19.86
2022-08-09T00:28:34.733Z,19.75
2022-08-09T00:31:09.041Z,19.84
2022-08-09T00:33:53.195Z,19.84
2022-08-09T00:36:22.291Z,19.85
2022-08-09T00:38:55.361Z,19.91
2022-08-09T00:44:14.880Z,19.71
2022-08-09T00:44:20.119Z,19.73
2022-08-09T00:47:04.683Z,19.85
2022-08-09T00:49:33.944Z,19.80
2022-08-09T00:52:05.518Z,19.74
2022-08-09T00:54:36.177Z,19.60
2022-08-09T00:57:08.950Z,19.65
2022-08-09T00:59:41.433Z,19.71
2022-08-09T01:02:20.363Z,19.69
2022-08-09T01:04:54.122Z,19.74
2022-08-09T01:07:37.645Z,19.68
2022-08-09T01:10:31.904Z,19.73
2022-08-09T01:13:09.072Z,19.74
2022-08-09T01:15:52.478Z,19.63
2022-08-09T01:18:30.162Z,19.52
2022-08-09T01:21:15.694Z,19.53
2022-08-09T01:24:03.974Z,19.41
2022-08-09T01:26:46.279Z,19.40
2022-08-09T01:29:29.204Z,19.40
2022-08-09T01:32:30.379Z,19.41
2022-08-09T01:35:18.031Z,19.33
2022-08-09T01:38:08.129Z,19.36
2022-08-09T01:40:43.888Z,19.21
2022-08-09T01:43:15.350Z,19.24
2022-08-09T01:45:44.676Z,19.20
2022-08-09T01:48:18.187Z,19.15
2022-08-09T01:50:54.994Z,19.16
2022-08-09T01:53:28.890Z,19.18
2022-08-09T01:55:59.363Z,19.11
2022-08-09T01:58:31.049Z,19.14
2022-08-09T02:01:00.986Z,19.09
2022-08-09T02:03:31.189Z,19.05
2022-08-09T02:06:04.022Z,18.99
2022-08-09T02:08:57.051Z,19.06
2022-08-09T02:11:42.527Z,18.78
2022-08-09T02:14:26.336Z,18.95
2022-08-09T02:16:59.531Z,18.91
2022-08-09T02:19:43.924Z,18.92
2022-08-09T02:22:31.553Z,18.77
2022-08-09T02:25:08.789Z,18.84
2022-08-09T02:27:57.457Z,18.78
2022-08-09T02:30:32.908Z,18.72
2022-08-09T02:33:03.528Z,18.68
2022-08-09T02:36:01.588Z,18.67
2022-08-09T02:38:30.030Z,18.51
2022-08-09T02:41:03.517Z,18.63
2022-08-09T02:43:47.749Z,18.60
2022-08-09T02:46:25.476Z,18.59
2022-08-09T02:48:57.801Z,18.49
2022-08-09T02:51:27.442Z,18.46
2022-08-09T02:54:01.091Z,18.39
2022-08-09T02:56:31.719Z,18.42
2022-08-09T02:59:02.438Z,18.35
2022-08-09T03:01:43.090Z,18.34
2022-08-09T03:04:26.321Z,18.33
2022-08-09T03:06:59.849Z,18.24
2022-08-09T03:09:43.055Z,18.29
2022-08-09T03:12:13.554Z,18.17
2022-08-09T03:14:44.000Z,18.13
2022-08-09T03:17:16.636Z,18.22
2022-08-09T03:19:59.034Z,18.11
2022-08-09T03:22:41.576Z,18.11
2022-08-09T03:25:25.978Z,18.08
2022-08-09T03:27:57.880Z,18.01
2022-08-09T03:30:33.417Z,17.85
2022-08-09T03:33:17.615Z,17.90
2022-08-09T03:36:12.523Z,17.79
2022-08-09T03:38:37.260Z,17.83
2022-08-09T03:41:10.362Z,17.82
2022-08-09T03:43:51.693Z,17.77
2022-08-09T03:46:32.489Z,17.84
2022-08-09T03:49:07.839Z,17.76
2022-08-09T03:51:55.736Z,17.79
2022-08-09T03:54:31.162Z,17.76
2022-08-09T03:57:04.004Z,17.67
2022-08-09T03:59:43.034Z,17.65
2022-08-09T04:02:26.292Z,17.65
2022-08-09T04:04:59.170Z,17.49
2022-08-09T04:07:33.910Z,17.43
2022-08-09T04:10:20.990Z,17.50
2022-08-09T04:13:01.108Z,17.45
2022-08-09T04:16:18.721Z,17.45
2022-08-09T04:18:21.302Z,17.44
2022-08-09T04:20:51.676Z,17.43
2022-08-09T04:23:24.457Z,17.52
2022-08-09T04:25:54.553Z,17.55
2022-08-09T04:28:33.526Z,17.45
2022-08-09T04:31:08.023Z,17.43
2022-08-09T04:33:47.452Z,17.55
2022-08-09T04:36:25.362Z,17.67
2022-08-09T04:38:54.214Z,17.62
2022-08-09T04:41:23.622Z,17.72
2022-08-09T04:44:05.588Z,17.67
2022-08-09T04:46:56.911Z,17.65
2022-08-09T04:49:40.460Z,17.71
2022-08-09T04:52:18.532Z,17.79
2022-08-09T04:54:54.317Z,17.76
2022-08-09T04:57:24.496Z,17.90
2022-08-09T04:59:55.312Z,17.90
2022-08-09T05:02:23.995Z,17.91
2022-08-09T05:04:56.006Z,17.84
2022-08-09T05:07:27.874Z,18.00
2022-08-09T05:10:01.882Z,18.10
2022-08-09T05:12:36.627Z,18.09
2022-08-09T05:15:11.463Z,18.27
2022-08-09T05:18:38.483Z,18.37
2022-08-09T05:20:29.731Z,18.33
2022-08-09T05:23:55.492Z,18.32
2022-08-09T05:25:51.130Z,18.45
2022-08-09T05:28:20.263Z,18.47
2022-08-09T05:30:48.918Z,18.43
2022-08-09T05:33:20.007Z,18.58
2022-08-09T05:35:54.563Z,18.65
2022-08-09T05:38:26.506Z,18.59
2022-08-09T05:40:56.005Z,18.85
2022-08-09T05:43:23.864Z,18.82
2022-08-09T05:45:57.961Z,18.94
2022-08-09T05:48:27.886Z,18.96
2022-08-09T05:51:43.154Z,18.98
2022-08-09T05:53:56.901Z,19.14
2022-08-09T05:56:27.253Z,19.21
2022-08-09T05:58:58.245Z,19.38
2022-08-09T06:01:27.194Z,19.36
2022-08-09T06:04:05.801Z,19.38
2022-08-09T06:06:34.980Z,19.47
2022-08-09T06:09:05.475Z,19.76
2022-08-09T06:11:41.256Z,19.73
2022-08-09T06:14:26.429Z,19.70
2022-08-09T06:16:57.382Z,19.78
2022-08-09T06:19:25.421Z,19.87
2022-08-09T06:21:58.327Z,19.99
2022-08-09T06:24:28.516Z,19.97
2022-08-09T06:26:57.297Z,20.26
2022-08-09T06:29:26.835Z,20.07
2022-08-09T06:32:08.414Z,20.32
2022-08-09T06:34:37.807Z,20.40
2022-08-09T06:37:06.602Z,20.47
2022-08-09T06:39:58.130Z,20.37
2022-08-09T06:42:30.518Z,20.28
2022-08-09T06:44:59.292Z,20.53
2022-08-09T06:47:30.318Z,20.57
2022-08-09T06:50:13.664Z,20.63
2022-08-09T06:52:48.456Z,20.87
2022-08-09T06:55:23.315Z,20.91
2022-08-09T06:58:01.574Z,20.96
2022-08-09T07:00:49.653Z,21.08
2022-08-09T07:03:27.893Z,21.23
2022-08-09T07:06:02.562Z,21.32
2022-08-09T07:08:32.869Z,21.47
2022-08-09T07:11:04.251Z,21.60
2022-08-09T07:13:45.160Z,21.67
2022-08-09T07:16:41.123Z,21.80
2022-08-09T07:19:15.012Z,22.01
2022-08-09T07:21:55.273Z,21.88
2022-08-09T07:24:32.407Z,22.00
2022-08-09T07:27:27.343Z,22.09
2022-08-09T07:29:59.798Z,22.18
2022-08-09T07:32:33.680Z,22.20
2022-08-09T07:35:08.118Z,22.42
2022-08-09T07:37:43.698Z,22.46
2022-08-09T07:40:17.166Z,22.57
2022-08-09T07:42:54.395Z,22.65
2022-08-09T07:45:37.412Z,22.68
2022-08-09T07:48:25.604Z,22.90
2022-08-09T07:51:09.351Z,22.90
2022-08-09T07:54:04.863Z,23.12
2022-08-09T07:56:34.487Z,23.19
2022-08-09T07:59:15.923Z,23.14
2022-08-09T08:01:56.308Z,23.19
2022-08-09T08:04:25.440Z,23.24
2022-08-09T08:07:15.394Z,23.41
2022-08-09T08:09:55.236Z,23.67
2022-08-09T08:12:46.426Z,23.98
2022-08-09T08:15:18.265Z,24.22
2022-08-09T08:17:57.887Z,24.36
2022-08-09T08:20:32.316Z,24.33
2022-08-09T08:23:06.911Z,24.46
2022-08-09T08:25:48.186Z,24.52
2022-08-09T08:28:25.713Z,24.67
2022-08-09T08:31:10.633Z,24.73
2022-08-09T08:33:52.219Z,24.67
2022-08-09T08:36:28.985Z,24.90
2022-08-09T08:38:57.919Z,24.95
2022-08-09T08:41:38.701Z,24.86
2022-08-09T08:44:15.574Z,24.94
2022-08-09T08:47:03.191Z,24.82
2022-08-09T08:49:46.979Z,25.09
2022-08-09T08:55:07.517Z,25.34
2022-08-09T08:57:37.565Z,25.40
2022-08-09T09:00:16.951Z,25.60
2022-08-09T09:03:04.421Z,25.55
2022-08-09T09:05:58.238Z,25.65
2022-08-09T09:08:31.876Z,25.41
2022-08-09T09:11:04.130Z,25.40
2022-08-09T09:13:47.334Z,25.58
2022-08-09T09:16:30.557Z,25.53
2022-08-09T09:19:37.389Z,25.80
2022-08-09T09:22:04.361Z,26.12
2022-08-09T09:24:35.022Z,26.22
2022-08-09T09:27:07.575Z,26.24
2022-08-09T09:30:11.078Z,26.36
2022-08-09T09:32:34.385Z,26.42
2022-08-09T09:35:07.531Z,26.26
2022-08-09T09:37:40.666Z,26.28
2022-08-09T09:40:11.785Z,26.12
2022-08-09T09:42:46.000Z,26.46
2022-08-09T09:45:26.398Z,26.56
2022-08-09T09:47:58.804Z,26.59
2022-08-09T09:50:49.434Z,26.51
2022-08-09T09:53:21.278Z,26.54
2022-08-09T09:56:04.257Z,26.62
2022-08-09T09:58:46.434Z,26.73
2022-08-09T10:01:31.278Z,26.68
2022-08-09T10:04:16.009Z,26.70
2022-08-09T10:06:54.451Z,26.82
2022-08-09T10:09:24.070Z,27.20
2022-08-09T10:12:14.302Z,27.24
2022-08-09T10:14:49.315Z,27.09
2022-08-09T10:17:50.945Z,27.17
2022-08-09T10:20:27.788Z,27.24
2022-08-09T10:23:17.315Z,27.35
2022-08-09T10:26:06.183Z,27.48
2022-08-09T10:28:37.859Z,27.42
2022-08-09T10:34:10.655Z,27.52
2022-08-09T10:36:45.418Z,27.75
2022-08-09T10:39:18.443Z,27.75
2022-08-09T10:41:48.299Z,27.91
2022-08-09T10:44:19.263Z,28.09
2022-08-09T10:48:19.203Z,28.29
2022-08-09T10:50:27.291Z,28.28
2022-08-09T10:53:23.059Z,28.39
2022-08-09T10:56:16.353Z,28.42
2022-08-09T10:58:51.474Z,28.46
2022-08-09T11:03:15.527Z,28.53
2022-08-09T11:04:32.858Z,28.66
2022-08-09T11:07:27.738Z,28.88
2022-08-09T11:10:15.966Z,28.96
2022-08-09T11:13:49.073Z,29.08
2022-08-09T11:16:37.400Z,29.02
2022-08-09T11:19:11.241Z,29.16
2022-08-09T11:22:16.675Z,29.30
2022-08-09T11:25:05.592Z,29.45
2022-08-09T11:28:03.891Z,29.53
2022-08-09T11:30:37.935Z,29.63
2022-08-09T11:33:12.815Z,29.49
2022-08-09T11:35:50.387Z,29.78
2022-08-09T11:38:22.208Z,29.84
2022-08-09T11:40:57.251Z,29.82
2022-08-09T11:43:42.836Z,29.95
2022-08-09T11:46:12.523Z,30.10
2022-08-09T11:48:53.934Z,30.11
2022-08-09T11:53:02.583Z,29.86
2022-08-09T11:54:28.246Z,30.16
2022-08-09T11:57:59.830Z,30.29
2022-08-09T12:00:30.946Z,30.32
2022-08-09T12:03:31.766Z,30.43
2022-08-09T12:05:52.497Z,30.61
2022-08-09T12:08:22.950Z,30.47
2022-08-09T12:10:55.209Z,30.27
2022-08-09T12:14:09.317Z,30.19
2022-08-09T12:16:30.712Z,30.30
2022-08-09T12:19:09.616Z,30.46
2022-08-09T12:21:48.715Z,30.38
2022-08-09T12:24:24.985Z,30.07
2022-08-09T12:29:10.128Z,29.65
2022-08-09T12:30:01.478Z,29.81
2022-08-09T12:32:45.273Z,29.85
2022-08-09T12:35:21.558Z,29.80
2022-08-09T12:37:52.595Z,29.84
2022-08-09T12:40:26.835Z,29.92
2022-08-09T12:42:55.758Z,30.17
2022-08-09T12:45:33.387Z,30.22
2022-08-09T12:48:03.886Z,29.99
2022-08-09T12:50:35.760Z,29.98
2022-08-09T12:53:08.975Z,29.97
2022-08-09T12:56:15.994Z,30.21
2022-08-09T12:58:35.155Z,30.20
2022-08-09T13:01:28.310Z,30.55
2022-08-09T13:04:02.454Z,30.76
2022-08-09T13:06:34.478Z,30.62
2022-08-09T13:09:11.426Z,30.66
2022-08-09T13:11:43.077Z,30.54
2022-08-09T13:14:43.009Z,30.78
2022-08-09T13:17:03.457Z,31.05
2022-08-09T13:20:08.588Z,31.21
2022-08-09T13:22:35.374Z,31.08
2022-08-09T13:25:07.560Z,31.05
2022-08-09T13:27:40.007Z,31.04
2022-08-09T13:31:11.632Z,31.20
2022-08-09T13:33:11.975Z,31.17
2022-08-09T13:36:38.708Z,31.07
2022-08-09T13:38:55.039Z,31.06
2022-08-09T13:41:59.017Z,30.99
2022-08-09T13:44:16.770Z,31.20
2022-08-09T13:47:27.118Z,31.34
2022-08-09T13:49:39.602Z,31.24
2022-08-09T13:52:22.764Z,31.33
2022-08-09T13:55:00.373Z,31.84
2022-08-09T13:57:35.982Z,31.59
2022-08-09T14:00:08.532Z,33.05
2022-08-09T14:02:42.227Z,36.03
2022-08-09T14:05:56.744Z,38.73
2022-08-09T14:08:12.620Z,41.28
2022-08-09T14:10:52.444Z,41.01
2022-08-09T14:14:15.857Z,40.75
2022-08-09T14:16:13.817Z,41.89
2022-08-09T14:18:45.864Z,42.75
2022-08-09T14:21:18.676Z,40.90
2022-08-09T14:23:54.760Z,40.58
2022-08-09T14:26:31.899Z,42.91
2022-08-09T14:29:03.723Z,41.66
2022-08-09T14:31:49.959Z,42.23
2022-08-09T14:34:27.450Z,43.06
2022-08-09T14:36:59.982Z,42.71
2022-08-09T14:39:45.597Z,41.24
2022-08-09T14:42:30.332Z,40.58
2022-08-09T14:46:39.731Z,36.83
2022-08-09T14:47:58.609Z,35.91
2022-08-09T14:50:31.194Z,35.82
2022-08-09T14:53:00.288Z,38.80
2022-08-09T14:55:29.094Z,39.87
2022-08-09T14:58:03.230Z,40.46
2022-08-09T15:00:33.329Z,40.81
2022-08-09T15:03:03.608Z,41.82
2022-08-09T15:05:32.916Z,42.60
2022-08-09T15:08:01.697Z,40.83
2022-08-09T15:10:31.645Z,40.67
2022-08-09T15:13:03.135Z,40.64
2022-08-09T15:15:34.371Z,41.72
2022-08-09T15:18:08.230Z,41.25
2022-08-09T15:21:54.685Z,40.05
2022-08-09T15:24:01.831Z,42.04
2022-08-09T15:26:18.922Z,42.74
2022-08-09T15:29:04.826Z,41.05
2022-08-09T15:31:41.411Z,42.13
2022-08-09T15:34:33.247Z,40.45
2022-08-09T15:37:23.734Z,38.17
2022-08-09T15:39:55.120Z,36.39
2022-08-09T15:42:23.841Z,35.08
2022-08-09T15:44:58.283Z,37.58
2022-08-09T15:47:47.102Z,38.49
2022-08-09T15:50:16.790Z,39.97
2022-08-09T15:52:55.030Z,40.09
2022-08-09T15:56:04.357Z,36.84
2022-08-09T15:58:27.220Z,33.00
2022-08-09T16:00:57.045Z,31.75
2022-08-09T16:03:26.633Z,31.67
2022-08-09T16:06:07.166Z,31.25
2022-08-09T16:08:56.049Z,31.04
2022-08-09T16:11:24.287Z,30.82
2022-08-09T16:14:03.637Z,30.74
2022-08-09T16:16:38.029Z,30.71
2022-08-09T16:19:10.909Z,30.76
2022-08-09T16:21:48.483Z,30.66
2022-08-09T16:24:33.540Z,30.71
2022-08-09T16:27:02.742Z,30.84
2022-08-09T16:29:37.722Z,30.72
2022-08-09T16:32:34.208Z,30.77
2022-08-09T16:35:11.230Z,30.73
2022-08-09T16:37:55.257Z,30.55
2022-08-09T16:40:40.434Z,30.65
2022-08-09T16:43:09.433Z,30.39
2022-08-09T16:45:44.064Z,30.02
2022-08-09T16:48:40.192Z,29.90
2022-08-09T16:51:07.422Z,30.11
2022-08-09T16:53:35.789Z,29.99
2022-08-09T16:56:10.003Z,30.00
2022-08-09T16:58:39.587Z,30.07
2022-08-09T17:01:11.455Z,30.07
2022-08-09T17:03:41.557Z,29.97
2022-08-09T17:06:31.289Z,29.97
2022-08-09T17:09:12.172Z,30.05
2022-08-09T17:11:47.980Z,29.97
2022-08-09T17:14:27.363Z,29.98
2022-08-09T17:16:59.826Z,29.92
2022-08-09T17:20:12.614Z,29.76
2022-08-09T17:22:24.760Z,29.70
2022-08-09T17:25:09.888Z,29.56
2022-08-09T17:27:49.179Z,29.53
2022-08-09T17:30:22.081Z,29.42
2022-08-09T17:32:57.470Z,29.53
2022-08-09T17:35:31.161Z,29.43
2022-08-09T17:38:02.293Z,29.57
2022-08-09T17:40:46.316Z,29.57
2022-08-09T17:43:33.891Z,29.48
2022-08-09T17:46:06.845Z,29.39
2022-08-09T17:48:38.845Z,29.31
2022-08-09T17:51:18.062Z,29.34
2022-08-09T17:53:53.469Z,29.18
2022-08-09T17:56:27.233Z,28.98
2022-08-09T17:58:59.659Z,28.92
2022-08-09T18:01:40.696Z,28.71
2022-08-09T18:04:17.728Z,28.82
2022-08-09T18:06:49.960Z,28.83
2022-08-09T18:09:24.783Z,28.79
2022-08-09T18:12:05.152Z,28.76
2022-08-09T18:14:49.889Z,28.63
2022-08-09T18:18:02.828Z,28.32
2022-08-09T18:21:00.240Z,28.27
2022-08-09T18:23:05.019Z,28.26
2022-08-09T18:25:52.428Z,28.12
2022-08-09T18:30:42.198Z,28.05
2022-08-09T18:31:11.433Z,27.68
2022-08-09T18:33:40.329Z,27.62
2022-08-09T18:36:14.381Z,27.38
2022-08-09T18:39:01.933Z,27.42
2022-08-09T18:41:34.945Z,27.34
2022-08-09T18:44:13.295Z,27.21
2022-08-09T18:46:51.309Z,27.15
2022-08-09T18:49:32.067Z,26.68
2022-08-09T18:52:00.371Z,26.76
2022-08-09T18:54:30.430Z,26.68
2022-08-09T18:57:05.954Z,26.56
2022-08-09T18:59:49.047Z,26.40
2022-08-09T19:02:20.061Z,26.28
2022-08-09T19:05:04.103Z,26.12
2022-08-09T19:07:36.933Z,26.04
2022-08-09T19:10:14.781Z,25.96
2022-08-09T19:12:55.545Z,25.88
2022-08-09T19:15:34.603Z,25.77
2022-08-09T19:18:02.726Z,25.66
2022-08-09T19:20:38.848Z,25.66
2022-08-09T19:23:07.955Z,25.58
2022-08-09T19:26:01.255Z,25.53
2022-08-09T19:28:28.915Z,25.43
2022-08-09T19:30:56.897Z,25.36
2022-08-09T19:33:25.107Z,25.32
2022-08-09T19:35:57.033Z,25.37
2022-08-09T19:38:25.712Z,25.42
2022-08-09T19:40:57.540Z,25.30
2022-08-09T19:44:00.940Z,25.20
2022-08-09T19:46:16.400Z,25.21
2022-08-09T19:50:09.024Z,25.15
2022-08-09T19:51:55.741Z,25.07
2022-08-09T19:54:25.111Z,25.22
2022-08-09T19:56:54.906Z,25.14
2022-08-09T19:59:57.983Z,25.14
2022-08-09T20:02:18.317Z,25.15
2022-08-09T20:05:01.195Z,25.08
2022-08-09T20:07:56.733Z,25.02
2022-08-09T20:10:22.503Z,24.97
2022-08-09T20:13:04.779Z,24.89
2022-08-09T20:16:34.846Z,24.87
2022-08-09T20:18:22.211Z,24.89
2022-08-09T20:20:55.331Z,24.87
2022-08-09T20:23:23.918Z,24.51
2022-08-09T20:26:06.825Z,24.82
2022-08-09T20:28:47.851Z,24.71
2022-08-09T20:31:18.195Z,24.63
2022-08-09T20:33:46.618Z,24.52
2022-08-09T20:36:20.468Z,24.64
2022-08-09T20:41:37.761Z,24.38
2022-08-09T20:44:10.614Z,24.43
2022-08-09T20:46:44.388Z,24.34
2022-08-09T20:49:13.696Z,24.28
2022-08-09T20:51:42.411Z,24.07
2022-08-09T20:54:16.764Z,24.16
2022-08-09T20:56:47.054Z,24.15
2022-08-09T20:59:49.981Z,23.96
2022-08-09T21:02:09.335Z,23.87
2022-08-09T21:05:56.531Z,23.80
2022-08-09T21:07:38.498Z,23.80
2022-08-09T21:10:09.463Z,23.86
2022-08-09T21:12:40.109Z,23.77
2022-08-09T21:15:12.752Z,23.68
2022-08-09T21:18:23.094Z,23.65
2022-08-09T21:20:30.216Z,23.52
2022-08-09T21:22:59.274Z,23.40
2022-08-09T21:25:56.018Z,23.35
2022-08-09T21:28:34.470Z,23.32
2022-08-09T21:31:17.803Z,23.25
2022-08-09T21:33:51.019Z,22.99
2022-08-09T21:36:27.816Z,23.04
2022-08-09T21:38:59.184Z,23.01
2022-08-09T21:42:04.927Z,22.91
2022-08-09T21:44:35.185Z,22.72
2022-08-09T21:47:09.206Z,22.79
2022-08-09T21:49:40.126Z,22.68
2022-08-09T21:52:16.620Z,22.67
2022-08-09T21:55:03.122Z,22.63
2022-08-09T21:57:38.816Z,22.48
2022-08-09T22:00:26.016Z,22.55
2022-08-09T22:02:59.312Z,22.30
2022-08-09T22:05:36.921Z,22.26
2022-08-09T22:08:12.993Z,22.21
2022-08-09T22:11:04.794Z,22.12
2022-08-09T22:13:31.416Z,22.15
2022-08-09T22:16:03.911Z,22.13
2022-08-09T22:18:33.429Z,21.99
2022-08-09T22:21:01.406Z,21.98
2022-08-09T22:23:35.490Z,22.03
2022-08-09T22:26:34.443Z,21.89
2022-08-09T22:29:07.706Z,21.90
2022-08-09T22:31:50.632Z,21.92
2022-08-09T22:34:27.562Z,21.75
2022-08-09T22:36:55.759Z,21.77
2022-08-09T22:39:55.202Z,21.75
2022-08-09T22:42:22.152Z,21.71
2022-08-09T22:45:00.510Z,21.74
2022-08-09T22:48:14.398Z,21.68
2022-08-09T22:50:30.010Z,21.67
2022-08-09T22:52:58.754Z,21.69
2022-08-09T22:55:39.612Z,21.71
2022-08-09T22:58:30.906Z,21.65
2022-08-09T23:01:02.148Z,21.47
2022-08-09T23:04:02.420Z,21.52
2022-08-09T23:06:34.853Z,21.56
2022-08-09T23:09:05.512Z,21.38
2022-08-09T23:11:34.331Z,21.50
2022-08-09T23:14:03.315Z,21.50
2022-08-09T23:16:32.920Z,21.24
2022-08-09T23:19:01.177Z,21.23
2022-08-09T23:21:33.555Z,21.35
2022-08-09T23:24:06.834Z,21.36
2022-08-09T23:26:35.610Z,21.18
2022-08-09T23:29:03.536Z,21.17
2022-08-09T23:31:31.481Z,21.38
2022-08-09T23:33:59.383Z,21.41
2022-08-09T23:36:30.277Z,21.37
2022-08-09T23:38:58.506Z,21.34
2022-08-09T23:41:28.719Z,21.25
2022-08-09T23:43:58.593Z,21.10
2022-08-09T23:46:26.867Z,21.22
2022-08-09T23:48:54.841Z,21.19
2022-08-09T23:51:23.458Z,21.15
2022-08-09T23:53:55.469Z,21.14
2022-08-09T23:56:53.147Z,20.99
2022-08-09T23:59:18.523Z,21.05
